Time;durP1;ratioP1;P1;durP2;ratioP2;P2;SDS_P1;SDS_P2;PMS_P1;PMS_P2;Temp;Humidity;BMP_temperature;BMP_pressure;BME280_temperature;BME280_humidity;BME280_pressure;Samples;Min_cycle;Max_cycle;Signal;HPM_P1;HPM_P2
2023/09/28 00:01:44;;;;;;;13.32;3.13;;;18.50;72.10;;;;;;5069850;28;20490;-68
2023/09/28 00:04:10;;;;;;;9.13;3.17;;;18.50;72.10;;;;;;5054505;28;20028;-72
2023/09/28 00:06:37;;;;;;;13.90;4.05;;;18.50;72.10;;;;;;5058113;28;20091;-70
2023/09/28 00:09:03;;;;;;;14.02;3.58;;;18.50;72.10;;;;;;5052719;28;20025;-68
2023/09/28 00:11:30;;;;;;;16.45;3.80;;;18.50;72.20;;;;;;5065459;28;20305;-68
2023/09/28 00:13:56;;;;;;;18.25;4.43;;;18.50;72.20;;;;;;5054024;28;20036;-67
2023/09/28 00:16:21;;;;;;;15.90;4.13;;;18.50;72.30;;;;;;5057510;28;20468;-68
2023/09/28 00:18:47;;;;;;;14.60;3.92;;;18.50;72.30;;;;;;5056920;28;20032;-68
2023/09/28 00:21:13;;;;;;;13.00;3.88;;;18.40;72.10;;;;;;5055788;28;20064;-67
2023/09/28 00:23:39;;;;;;;14.55;3.40;;;18.50;72.30;;;;;;5061165;28;20047;-66
2023/09/28 00:26:07;;;;;;;10.23;2.83;;;18.40;72.10;;;;;;5060949;28;20057;-67
2023/09/28 00:28:34;;;;;;;10.82;2.72;;;18.40;72.20;;;;;;5052286;28;20457;-72
2023/09/28 00:31:04;;;;;;;14.88;2.95;;;18.40;72.20;;;;;;5062481;28;20029;-69
2023/09/28 00:33:32;;;;;;;13.05;3.67;;;18.40;72.20;;;;;;5061070;28;20036;-69
2023/09/28 00:35:57;;;;;;;15.43;3.75;;;18.40;72.20;;;;;;5063967;28;20032;-70
2023/09/28 00:38:23;;;;;;;13.35;4.35;;;18.40;72.20;;;;;;5064029;28;20028;-73
2023/09/28 00:40:49;;;;;;;16.85;3.65;;;18.40;72.20;;;;;;5060770;28;20024;-70
2023/09/28 00:43:25;;;;;;;13.18;3.50;;;18.40;72.30;;;;;;5061156;28;20488;-69
2023/09/28 00:45:51;;;;;;;12.68;3.85;;;18.40;72.30;;;;;;5050234;28;20515;-68
2023/09/28 00:48:17;;;;;;;18.35;4.00;;;18.40;72.30;;;;;;5061090;28;20041;-69
2023/09/28 00:50:43;;;;;;;12.05;3.15;;;18.40;72.20;;;;;;5057775;28;20051;-67
2023/09/28 00:53:10;;;;;;;12.15;3.08;;;18.40;72.20;;;;;;5056792;28;20075;-69
2023/09/28 00:55:37;;;;;;;12.10;3.50;;;18.40;72.20;;;;;;5058872;28;20131;-76
2023/09/28 00:58:10;;;;;;;12.95;5.40;;;18.40;72.20;;;;;;5050848;28;20055;-74
2023/09/28 01:00:38;;;;;;;14.52;3.90;;;18.40;72.20;;;;;;5056543;28;20044;-67
2023/09/28 01:03:08;;;;;;;10.45;2.95;;;18.30;72.00;;;;;;5065004;28;20024;-70
2023/09/28 01:05:39;;;;;;;14.13;2.88;;;18.40;72.10;;;;;;5057554;28;20147;-71
2023/09/28 01:08:12;;;;;;;10.65;2.60;;;18.40;72.60;;;;;;5054656;28;20029;-67
2023/09/28 01:10:40;;;;;;;18.98;4.43;;;18.30;71.90;;;;;;5059564;28;20040;-72
2023/09/28 01:13:15;;;;;;;12.00;3.00;;;18.30;71.90;;;;;;5060633;28;20097;-73
2023/09/28 01:15:46;;;;;;;15.07;3.47;;;18.30;71.90;;;;;;5050159;28;20048;-74
2023/09/28 01:18:17;;;;;;;15.13;3.38;;;18.30;71.80;;;;;;5059864;28;20033;-67
2023/09/28 01:20:47;;;;;;;10.70;2.53;;;18.30;71.80;;;;;;5048887;28;20043;-67
2023/09/28 01:23:14;;;;;;;11.70;4.25;;;18.30;71.80;;;;;;5052107;28;20029;-68
2023/09/28 01:25:41;;;;;;;10.50;3.10;;;18.30;71.80;;;;;;5055572;28;20518;-68
2023/09/28 01:28:07;;;;;;;10.35;2.67;;;18.30;71.80;;;;;;5057650;28;20112;-71
2023/09/28 01:30:34;;;;;;;13.05;3.67;;;18.30;71.70;;;;;;5058820;28;20028;-69
2023/09/28 01:33:00;;;;;;;14.45;3.13;;;18.30;71.60;;;;;;5056691;28;20037;-67
2023/09/28 01:35:29;;;;;;;14.02;3.72;;;18.30;71.60;;;;;;5062304;28;20047;-67
2023/09/28 01:38:19;;;;;;;12.32;3.47;;;18.30;71.60;;;;;;5059578;28;20399;-74
2023/09/28 01:40:48;;;;;;;11.00;2.78;;;18.30;71.70;;;;;;5056650;28;20048;-68
2023/09/28 01:43:16;;;;;;;11.32;3.85;;;18.30;71.70;;;;;;5055075;28;20028;-69
2023/09/28 01:45:43;;;;;;;12.20;3.70;;;18.30;71.60;;;;;;5058181;28;21216;-67
2023/09/28 01:48:11;;;;;;;22.17;4.07;;;18.30;71.60;;;;;;5047177;28;20428;-68
2023/09/28 01:50:37;;;;;;;10.85;3.40;;;18.30;71.60;;;;;;5036418;28;20139;-72
2023/09/28 01:53:03;;;;;;;10.63;2.45;;;18.30;71.50;;;;;;5052667;28;20056;-69
2023/09/28 01:55:29;;;;;;;14.02;2.83;;;18.30;71.40;;;;;;5054136;28;20044;-68
2023/09/28 01:57:55;;;;;;;10.25;4.05;;;18.30;71.40;;;;;;5054316;28;20025;-69
2023/09/28 02:00:24;;;;;;;10.38;3.33;;;18.30;71.50;;;;;;5050822;28;20139;-69
2023/09/28 02:02:54;;;;;;;11.98;3.55;;;18.30;71.40;;;;;;5053615;28;20107;-72
2023/09/28 02:05:32;;;;;;;9.25;3.03;;;18.30;71.40;;;;;;5054184;28;20032;-71
2023/09/28 02:07:59;;;;;;;12.65;3.22;;;18.30;71.40;;;;;;5034951;28;20162;-73
2023/09/28 02:10:26;;;;;;;11.93;2.75;;;18.30;71.40;;;;;;5047603;28;20025;-69
2023/09/28 02:12:52;;;;;;;12.75;2.90;;;18.30;71.40;;;;;;5033113;28;20350;-70
2023/09/28 02:15:17;;;;;;;10.43;2.95;;;18.30;71.40;;;;;;5044394;28;20360;-71
2023/09/28 02:17:44;;;;;;;13.48;3.05;;;18.30;71.30;;;;;;5051364;28;20586;-70
2023/09/28 02:20:16;;;;;;;10.75;4.05;;;18.30;71.30;;;;;;5051554;28;20032;-73
2023/09/28 02:22:44;;;;;;;13.73;3.28;;;18.30;71.30;;;;;;5050759;28;20033;-75
2023/09/28 02:25:17;;;;;;;10.77;3.85;;;18.20;71.10;;;;;;5054551;28;20032;-73
2023/09/28 02:27:44;;;;;;;19.85;4.07;;;18.30;71.30;;;;;;5039345;28;20514;-73
2023/09/28 02:30:13;;;;;;;12.05;2.45;;;18.30;71.20;;;;;;5046585;28;20033;-70
2023/09/28 02:32:40;;;;;;;14.30;4.03;;;18.20;71.00;;;;;;5058671;28;20097;-68
2023/09/28 02:35:07;;;;;;;13.18;3.75;;;18.30;71.20;;;;;;5052345;28;20048;-68
2023/09/28 02:37:34;;;;;;;11.40;2.42;;;18.30;71.20;;;;;;5051845;28;20520;-70
2023/09/28 02:40:04;;;;;;;9.48;3.10;;;18.30;71.20;;;;;;5051232;28;20036;-68
2023/09/28 02:42:32;;;;;;;8.50;2.25;;;18.20;71.00;;;;;;5053285;28;20040;-70
2023/09/28 02:44:58;;;;;;;12.02;3.53;;;18.30;71.20;;;;;;5044148;28;20032;-67
2023/09/28 02:47:24;;;;;;;10.75;3.22;;;18.20;71.00;;;;;;5048822;28;20033;-71
2023/09/28 02:49:51;;;;;;;9.40;2.90;;;18.20;71.10;;;;;;5057103;28;20021;-70
2023/09/28 02:52:19;;;;;;;12.73;3.20;;;18.20;71.00;;;;;;5052444;28;20035;-67
2023/09/28 02:54:46;;;;;;;12.35;2.60;;;18.20;70.90;;;;;;5057142;28;20072;-69
2023/09/28 02:57:13;;;;;;;9.32;2.53;;;18.20;71.00;;;;;;5051628;28;20032;-69
2023/09/28 02:59:39;;;;;;;11.70;3.38;;;18.20;71.00;;;;;;5056678;28;20056;-71
2023/09/28 03:02:08;;;;;;;10.40;3.25;;;18.20;71.00;;;;;;5049707;28;20029;-67
2023/09/28 03:04:34;;;;;;;9.77;3.00;;;18.20;71.00;;;;;;5060129;28;20037;-68
2023/09/28 03:07:00;;;;;;;11.45;3.28;;;18.20;71.00;;;;;;5055253;28;20040;-69
2023/09/28 03:09:35;;;;;;;10.85;2.85;;;18.20;70.90;;;;;;5061469;28;20028;-69
2023/09/28 03:12:01;;;;;;;9.85;2.47;;;18.20;70.90;;;;;;5057454;28;20036;-74
2023/09/28 03:14:27;;;;;;;9.57;2.83;;;18.20;70.90;;;;;;5059689;28;20045;-70
2023/09/28 03:16:53;;;;;;;10.25;2.58;;;18.20;70.90;;;;;;5051575;28;20021;-68
2023/09/28 03:19:19;;;;;;;12.20;2.75;;;18.20;70.90;;;;;;5058134;28;20040;-72
2023/09/28 03:21:45;;;;;;;11.30;3.05;;;18.20;70.90;;;;;;5062755;28;20024;-71
2023/09/28 03:24:11;;;;;;;10.93;3.00;;;18.10;70.80;;;;;;5063147;28;20116;-73
2023/09/28 03:26:37;;;;;;;10.27;2.30;;;18.10;70.70;;;;;;5062511;28;20039;-68
2023/09/28 03:29:04;;;;;;;9.48;3.72;;;18.10;70.80;;;;;;5063845;28;20526;-76
2023/09/28 03:31:32;;;;;;;12.27;3.65;;;18.10;70.70;;;;;;5062427;28;20036;-72
2023/09/28 03:33:58;;;;;;;16.48;3.60;;;18.20;70.90;;;;;;5056200;28;20448;-75
2023/09/28 03:36:25;;;;;;;13.15;3.22;;;18.10;70.70;;;;;;5057112;28;20215;-71
2023/09/28 03:38:51;;;;;;;10.50;2.95;;;18.10;70.80;;;;;;5062578;28;20028;-73
2023/09/28 03:41:17;;;;;;;15.05;3.47;;;18.10;70.80;;;;;;5055686;28;20037;-71
2023/09/28 03:43:44;;;;;;;21.25;4.30;;;18.10;70.80;;;;;;5057498;28;20385;-69
2023/09/28 03:46:11;;;;;;;11.73;4.03;;;18.10;70.80;;;;;;5067090;28;20043;-69
2023/09/28 03:48:37;;;;;;;12.20;3.63;;;18.10;70.90;;;;;;5062510;28;20468;-70
2023/09/28 03:51:03;;;;;;;13.95;3.55;;;18.10;70.90;;;;;;5066093;28;20525;-70
2023/09/28 03:53:32;;;;;;;11.55;2.92;;;18.10;70.90;;;;;;5063499;28;20041;-70
2023/09/28 03:55:58;;;;;;;13.82;3.30;;;18.10;70.90;;;;;;5063501;28;20044;-69
2023/09/28 03:58:24;;;;;;;12.13;3.03;;;18.10;70.90;;;;;;5053539;28;20044;-73
2023/09/28 04:00:51;;;;;;;15.85;4.88;;;18.10;71.00;;;;;;5062677;28;20024;-76
2023/09/28 04:03:17;;;;;;;11.02;3.47;;;18.10;71.00;;;;;;5053749;28;20542;-69
2023/09/28 04:05:43;;;;;;;9.55;3.75;;;18.10;71.00;;;;;;5061891;28;20343;-80
2023/09/28 04:08:08;;;;;;;12.27;3.92;;;18.10;71.00;;;;;;5059678;28;20059;-75
2023/09/28 04:10:34;;;;;;;11.43;3.60;;;18.10;71.00;;;;;;5057433;28;20033;-76
2023/09/28 04:13:01;;;;;;;9.63;3.45;;;18.00;70.90;;;;;;5054696;28;20033;-70
2023/09/28 04:15:27;;;;;;;10.93;2.90;;;18.10;71.10;;;;;;5054403;28;20052;-79
2023/09/28 04:17:53;;;;;;;14.30;3.55;;;18.10;71.10;;;;;;5058724;28;20025;-80
2023/09/28 04:20:19;;;;;;;11.32;2.60;;;18.10;71.10;;;;;;5051995;28;20029;-71
2023/09/28 04:22:45;;;;;;;15.40;3.33;;;18.10;71.10;;;;;;5058659;28;20036;-68
2023/09/28 04:25:11;;;;;;;13.07;2.80;;;18.00;70.80;;;;;;5056355;28;20043;-70
2023/09/28 04:27:38;;;;;;;12.30;2.85;;;18.10;71.00;;;;;;5057061;28;20032;-77
2023/09/28 04:30:05;;;;;;;12.95;3.20;;;18.00;70.80;;;;;;5062923;28;20024;-70
2023/09/28 04:32:31;;;;;;;11.13;2.72;;;18.00;70.80;;;;;;5052473;28;20365;-72
2023/09/28 04:34:57;;;;;;;9.15;2.95;;;18.00;70.80;;;;;;5059154;28;20036;-68
2023/09/28 04:37:25;;;;;;;14.25;2.80;;;18.00;70.80;;;;;;5057542;28;20035;-70
2023/09/28 04:39:53;;;;;;;13.90;2.90;;;18.00;70.80;;;;;;5052111;28;20060;-68
2023/09/28 04:42:22;;;;;;;15.75;2.85;;;18.00;70.80;;;;;;5052294;28;20214;-75
2023/09/28 04:44:49;;;;;;;11.45;2.85;;;18.00;70.80;;;;;;5053905;28;20047;-75
2023/09/28 04:47:15;;;;;;;11.35;3.67;;;18.00;70.80;;;;;;5048920;28;20036;-71
2023/09/28 04:49:41;;;;;;;16.75;4.13;;;17.90;70.70;;;;;;5055313;28;20032;-68
2023/09/28 04:52:11;;;;;;;12.88;3.33;;;17.90;70.60;;;;;;5061576;28;20038;-71
2023/09/28 04:54:39;;;;;;;12.70;3.47;;;17.90;70.60;;;;;;5054737;28;20130;-73
2023/09/28 04:57:05;;;;;;;14.20;3.50;;;17.90;70.60;;;;;;5053987;28;20021;-67
2023/09/28 04:59:38;;;;;;;11.88;3.60;;;17.90;70.60;;;;;;5056014;28;20061;-68
2023/09/28 05:02:05;;;;;;;;;;;17.90;70.70;;;;;;5051282;28;20032;-70
2023/09/28 05:04:31;;;;;;;11.60;3.55;;;17.80;70.60;;;;;;5053674;28;19951;-71
2023/09/28 05:06:59;;;;;;;9.48;3.50;;;17.80;71.10;;;;;;5046034;28;20136;-71
2023/09/28 05:09:26;;;;;;;9.40;3.08;;;17.80;70.60;;;;;;5050891;28;20564;-67
2023/09/28 05:11:53;;;;;;;15.07;3.42;;;17.70;70.40;;;;;;5050004;28;20039;-67
2023/09/28 05:14:24;;;;;;;10.32;2.88;;;17.70;70.50;;;;;;5046030;28;20110;-71
2023/09/28 05:16:51;;;;;;;16.20;3.50;;;17.70;70.50;;;;;;5053694;28;20039;-77
2023/09/28 05:19:17;;;;;;;10.82;3.13;;;17.70;70.50;;;;;;5052966;28;20089;-69
2023/09/28 05:21:43;;;;;;;13.13;3.50;;;17.70;70.50;;;;;;5049034;28;20037;-67
2023/09/28 05:24:09;;;;;;;12.48;2.88;;;17.60;70.30;;;;;;5044437;28;20463;-68
2023/09/28 05:26:35;;;;;;;11.73;2.92;;;17.60;70.30;;;;;;5047411;28;20252;-69
2023/09/28 05:29:00;;;;;;;13.10;3.03;;;17.60;70.30;;;;;;5046969;28;20032;-70
2023/09/28 05:31:26;;;;;;;12.45;3.05;;;17.60;70.30;;;;;;5049592;28;20484;-68
2023/09/28 05:33:52;;;;;;;12.73;3.13;;;17.50;70.20;;;;;;5049667;28;20039;-70
2023/09/28 05:36:20;;;;;;;10.57;2.53;;;17.50;70.20;;;;;;5045147;28;20044;-69
2023/09/28 05:38:47;;;;;;;8.60;2.10;;;17.50;70.20;;;;;;5056218;28;20103;-69
2023/09/28 05:41:13;;;;;;;13.45;2.85;;;17.50;70.30;;;;;;5052564;28;20068;-72
2023/09/28 05:43:38;;;;;;;8.85;2.90;;;17.40;70.50;;;;;;5055271;28;20121;-67
2023/09/28 05:46:05;;;;;;;18.80;3.13;;;17.50;70.80;;;;;;5052973;28;20466;-74
2023/09/28 05:48:30;;;;;;;10.45;3.42;;;17.50;70.70;;;;;;5054719;28;20047;-72
2023/09/28 05:50:56;;;;;;;14.48;5.15;;;17.40;70.40;;;;;;5053983;28;20032;-72
2023/09/28 05:53:22;;;;;;;10.18;3.28;;;17.40;70.40;;;;;;5051674;28;20127;-68
2023/09/28 05:55:51;;;;;;;9.68;1.95;;;17.40;70.30;;;;;;5053736;28;20032;-70
2023/09/28 05:58:17;;;;;;;11.32;2.47;;;17.40;70.30;;;;;;5062221;28;20590;-67
2023/09/28 06:00:44;;;;;;;8.73;2.75;;;17.30;70.10;;;;;;5051690;28;20045;-67
2023/09/28 06:03:10;;;;;;;9.40;3.33;;;17.30;70.10;;;;;;5054716;28;20127;-68
2023/09/28 06:05:36;;;;;;;8.25;2.92;;;17.20;69.90;;;;;;5054706;28;20492;-67
2023/09/28 06:08:02;;;;;;;8.43;3.42;;;17.20;69.90;;;;;;5052417;28;20127;-67
2023/09/28 06:10:28;;;;;;;10.48;3.78;;;17.20;69.90;;;;;;5054416;28;20418;-68
2023/09/28 06:12:54;;;;;;;10.85;3.20;;;17.20;69.90;;;;;;5052243;28;20028;-71
2023/09/28 06:15:19;;;;;;;17.90;4.53;;;17.20;69.90;;;;;;5040657;28;20412;-67
2023/09/28 06:17:45;;;;;;;10.48;2.88;;;17.20;69.90;;;;;;5048848;28;20032;-69
2023/09/28 06:20:12;;;;;;;10.57;3.10;;;17.20;69.90;;;;;;5052621;28;20032;-70
2023/09/28 06:22:38;;;;;;;7.75;2.92;;;17.20;69.80;;;;;;5053118;28;20036;-67
2023/09/28 06:25:07;;;;;;;9.32;3.00;;;17.10;69.60;;;;;;5052535;28;20028;-68
2023/09/28 06:27:33;;;;;;;12.48;2.65;;;17.10;69.60;;;;;;5048901;28;20053;-72
2023/09/28 06:29:59;;;;;;;8.73;2.80;;;17.10;69.60;;;;;;5058079;28;20115;-69
2023/09/28 06:32:25;;;;;;;11.07;3.58;;;17.10;69.60;;;;;;5042838;28;20039;-70
2023/09/28 06:34:52;;;;;;;11.52;3.67;;;17.10;69.60;;;;;;5054537;28;20483;-71
2023/09/28 06:37:17;;;;;;;7.40;2.20;;;17.10;69.60;;;;;;5057351;28;20101;-67
2023/09/28 06:39:43;;;;;;;7.30;2.72;;;17.10;69.60;;;;;;5062817;28;20477;-72
2023/09/28 06:42:09;;;;;;;8.02;3.03;;;17.10;69.50;;;;;;5041164;28;20371;-72
2023/09/28 06:44:35;;;;;;;10.85;3.38;;;17.10;69.60;;;;;;5061264;28;20113;-69
2023/09/28 06:47:02;;;;;;;12.18;2.72;;;17.10;69.60;;;;;;5071606;28;20036;-68
2023/09/28 06:49:28;;;;;;;7.93;2.15;;;17.00;69.40;;;;;;5056442;28;20032;-72
2023/09/28 06:51:54;;;;;;;11.77;3.78;;;17.00;69.40;;;;;;5069791;28;20046;-69
2023/09/28 06:54:20;;;;;;;8.57;3.10;;;17.00;69.40;;;;;;5058191;28;20032;-68
2023/09/28 06:56:49;;;;;;;11.05;3.10;;;17.00;69.40;;;;;;5060985;28;20024;-74
2023/09/28 06:59:15;;;;;;;10.57;3.22;;;17.00;69.40;;;;;;5066518;28;20079;-69
2023/09/28 07:01:42;;;;;;;10.88;2.42;;;17.00;69.40;;;;;;5056760;28;20684;-68
2023/09/28 07:04:08;;;;;;;10.50;3.47;;;17.00;69.40;;;;;;5063466;28;20038;-73
2023/09/28 07:06:34;;;;;;;12.60;3.95;;;17.00;69.40;;;;;;5055398;28;20040;-70
2023/09/28 07:09:02;;;;;;;13.48;4.05;;;17.00;69.40;;;;;;5056985;28;20059;-68
2023/09/28 07:11:28;;;;;;;13.48;4.32;;;17.10;69.60;;;;;;5061739;28;20029;-69
2023/09/28 07:13:54;;;;;;;10.30;3.38;;;17.10;69.50;;;;;;5052836;28;20051;-68
2023/09/28 07:16:20;;;;;;;9.93;2.90;;;17.10;69.40;;;;;;5054049;28;20029;-70
2023/09/28 07:18:46;;;;;;;13.20;3.78;;;17.20;69.50;;;;;;5066241;28;20036;-67
2023/09/28 07:21:12;;;;;;;10.55;2.67;;;17.30;69.50;;;;;;5061822;28;20504;-67
2023/09/28 07:23:41;;;;;;;11.90;3.28;;;17.30;69.40;;;;;;5059253;28;20044;-72
2023/09/28 07:26:17;;;;;;;12.48;2.85;;;17.40;69.30;;;;;;5061176;28;20053;-68
2023/09/28 07:28:49;;;;;;;11.50;3.25;;;17.40;69.20;;;;;;5064204;28;20029;-68
2023/09/28 07:31:15;;;;;;;13.45;3.08;;;17.50;69.20;;;;;;5057748;28;20047;-70
2023/09/28 07:33:42;;;;;;;6.78;2.70;;;17.50;69.10;;;;;;5051333;28;20161;-70
2023/09/28 07:36:08;;;;;;;10.25;3.33;;;17.60;69.10;;;;;;5054989;28;20040;-73
2023/09/28 07:38:34;;;;;;;14.82;4.05;;;17.70;69.20;;;;;;5067799;28;20028;-68
2023/09/28 07:41:01;;;;;;;11.15;3.45;;;17.70;69.10;;;;;;5055298;28;20098;-68
2023/09/28 07:43:28;;;;;;;10.23;3.55;;;17.80;69.10;;;;;;5056171;28;20056;-69
2023/09/28 07:45:54;;;;;;;11.70;3.35;;;17.80;68.90;;;;;;5055694;28;20059;-74
2023/09/28 07:48:20;;;;;;;10.73;3.33;;;17.90;68.90;;;;;;5054394;28;20452;-72
2023/09/28 07:50:46;;;;;;;10.77;3.50;;;18.00;69.00;;;;;;5059761;28;20090;-73
2023/09/28 07:53:12;;;;;;;11.50;3.10;;;18.00;68.80;;;;;;5066477;28;20036;-69
2023/09/28 07:55:38;;;;;;;16.00;3.22;;;18.10;68.90;;;;;;5058958;28;20279;-68
2023/09/28 07:58:04;;;;;;;10.30;3.05;;;18.10;68.80;;;;;;5058566;28;20073;-69
2023/09/28 08:00:31;;;;;;;11.07;3.85;;;18.10;68.70;;;;;;5062539;28;20076;-70
2023/09/28 08:02:56;;;;;;;14.13;4.18;;;18.10;68.60;;;;;;5064925;28;20320;-68
2023/09/28 08:05:22;;;;;;;14.90;3.28;;;18.10;68.60;;;;;;5064704;28;20109;-68
2023/09/28 08:07:48;;;;;;;14.88;4.20;;;18.20;68.70;;;;;;5063119;28;20035;-68
2023/09/28 08:10:15;;;;;;;19.88;4.93;;;18.20;68.60;;;;;;5062498;28;20032;-68
2023/09/28 08:12:42;;;;;;;11.00;3.28;;;18.20;68.50;;;;;;5058750;28;20419;-68
2023/09/28 08:15:08;;;;;;;11.35;3.10;;;18.30;68.60;;;;;;5054197;28;20526;-68
2023/09/28 08:17:36;;;;;;;7.43;4.05;;;18.30;68.50;;;;;;5057602;28;20147;-67
2023/09/28 08:20:03;;;;;;;12.18;3.75;;;18.30;68.40;;;;;;5053655;28;20169;-71
2023/09/28 08:22:33;;;;;;;7.90;2.88;;;18.40;68.50;;;;;;5060721;28;20028;-68
2023/09/28 08:24:59;;;;;;;10.85;3.05;;;18.40;68.50;;;;;;5051708;28;20032;-70
2023/09/28 08:27:25;;;;;;;10.60;3.10;;;18.40;68.50;;;;;;5054775;28;20044;-69
2023/09/28 08:29:51;;;;;;;13.85;4.00;;;18.40;68.40;;;;;;5055352;28;20484;-68
2023/09/28 08:32:17;;;;;;;9.85;3.50;;;18.50;68.50;;;;;;5052594;28;20032;-74
2023/09/28 08:34:43;;;;;;;11.00;2.65;;;18.50;68.50;;;;;;5057354;28;20894;-70
2023/09/28 08:37:09;;;;;;;8.75;3.20;;;18.50;68.50;;;;;;5058807;28;20039;-68
2023/09/28 08:39:37;;;;;;;13.77;3.25;;;18.50;68.40;;;;;;5060127;28;20025;-68
2023/09/28 08:42:05;;;;;;;14.10;4.07;;;18.60;68.50;;;;;;5068008;28;20658;-73
2023/09/28 08:44:35;;;;;;;18.45;5.30;;;18.60;68.50;;;;;;5061790;28;20110;-68
2023/09/28 08:47:06;;;;;;;12.48;4.05;;;18.60;69.00;;;;;;5057627;28;20422;-68
2023/09/28 08:49:36;;;;;;;16.60;4.63;;;18.60;68.40;;;;;;5058924;28;20079;-71
2023/09/28 08:52:03;;;;;;;17.30;4.35;;;18.60;68.40;;;;;;5058723;28;20039;-69
2023/09/28 08:54:29;;;;;;;17.17;4.18;;;18.60;68.40;;;;;;5058748;28;20581;-70
2023/09/28 08:56:57;;;;;;;16.00;4.55;;;18.60;68.40;;;;;;5056582;28;20036;-71
2023/09/28 08:59:28;;;;;;;16.23;3.45;;;18.50;68.20;;;;;;5057009;28;20055;-70
2023/09/28 09:01:55;;;;;;;14.10;4.82;;;18.60;68.30;;;;;;5050432;28;20491;-72
2023/09/28 09:04:21;;;;;;;15.68;5.68;;;18.60;68.30;;;;;;5058983;28;20111;-68
2023/09/28 09:06:47;;;;;;;13.65;4.40;;;18.70;68.30;;;;;;5058013;28;20028;-70
2023/09/28 09:09:17;;;;;;;11.90;2.80;;;18.80;68.40;;;;;;5062993;28;20044;-68
2023/09/28 09:11:52;;;;;;;19.35;5.93;;;18.90;68.40;;;;;;5050886;28;20413;-69
2023/09/28 09:14:20;;;;;;;17.08;4.50;;;19.00;68.30;;;;;;5049862;28;20040;-69
2023/09/28 09:16:46;;;;;;;14.95;3.88;;;19.10;68.30;;;;;;5072962;28;20327;-68
2023/09/28 09:19:14;;;;;;;16.65;5.43;;;19.10;68.10;;;;;;5056255;28;20451;-72
2023/09/28 09:21:44;;;;;;;17.35;5.60;;;19.20;68.20;;;;;;5054198;28;20293;-76
2023/09/28 09:24:14;;;;;;;14.60;3.95;;;19.40;68.30;;;;;;5057720;28;20032;-70
2023/09/28 09:26:47;;;;;;;19.92;5.93;;;19.50;68.30;;;;;;5056908;28;20033;-67
2023/09/28 09:29:16;;;;;;;10.73;4.53;;;19.70;68.30;;;;;;5057968;28;20029;-74
2023/09/28 09:31:44;;;;;;;13.75;4.55;;;19.80;68.00;;;;;;5052265;28;20020;-68
2023/09/28 09:34:17;;;;;;;12.40;3.75;;;20.00;68.00;;;;;;5053313;28;20048;-70
2023/09/28 09:36:54;;;;;;;10.93;4.50;;;20.10;68.00;;;;;;5050270;28;20036;-69
2023/09/28 09:39:22;;;;;;;13.40;4.13;;;20.20;67.90;;;;;;5060858;28;20369;-69
2023/09/28 09:41:49;;;;;;;14.15;3.55;;;20.30;67.80;;;;;;5059737;28;20032;-70
2023/09/28 09:44:19;;;;;;;12.35;3.90;;;20.40;67.70;;;;;;5060312;28;20266;-69
2023/09/28 09:46:47;;;;;;;18.95;6.15;;;20.50;67.60;;;;;;5048737;28;20033;-70
2023/09/28 09:49:18;;;;;;;15.13;4.70;;;20.50;67.40;;;;;;5060015;28;20036;-68
2023/09/28 09:51:46;;;;;;;14.30;4.47;;;20.60;67.30;;;;;;5063173;28;20036;-71
2023/09/28 09:54:16;;;;;;;13.00;3.92;;;20.70;67.30;;;;;;5061132;28;20036;-69
2023/09/28 09:56:46;;;;;;;12.05;4.05;;;20.70;67.10;;;;;;5051964;28;20043;-68
2023/09/28 09:59:17;;;;;;;15.80;4.53;;;20.80;67.00;;;;;;5058743;28;20824;-69
2023/09/28 10:01:48;;;;;;;14.05;3.53;;;20.90;66.90;;;;;;5057463;28;20048;-70
2023/09/28 10:04:21;;;;;;;13.60;4.53;;;21.00;66.90;;;;;;5056224;28;20160;-69
2023/09/28 10:06:51;;;;;;;12.80;3.60;;;21.10;66.70;;;;;;5056700;28;20428;-68
2023/09/28 10:09:19;;;;;;;12.48;3.92;;;21.20;66.50;;;;;;5057437;28;20048;-68
2023/09/28 10:11:48;;;;;;;13.30;4.00;;;21.30;66.50;;;;;;5058121;28;20033;-71
2023/09/28 10:14:21;;;;;;;11.00;3.83;;;21.30;66.10;;;;;;5054350;28;20033;-69
2023/09/28 10:16:49;;;;;;;11.07;3.83;;;21.40;66.10;;;;;;5053727;28;20040;-70
2023/09/28 10:19:22;;;;;;;12.18;4.07;;;21.50;66.00;;;;;;5054608;28;20286;-71
2023/09/28 10:21:50;;;;;;;9.52;3.50;;;21.60;66.00;;;;;;5054749;28;20160;-68
2023/09/28 10:24:20;;;;;;;13.23;4.45;;;21.70;65.90;;;;;;5053316;28;20474;-68
2023/09/28 10:26:51;;;;;;;14.07;4.35;;;21.80;66.40;;;;;;5056079;28;20047;-67
2023/09/28 10:29:23;;;;;;;14.00;4.13;;;22.00;65.70;;;;;;5050416;28;20039;-68
2023/09/28 10:31:53;;;;;;;13.55;4.47;;;22.10;65.50;;;;;;5049736;28;20067;-67
2023/09/28 10:34:20;;;;;;;10.20;3.75;;;22.20;65.50;;;;;;5063768;28;20434;-67
2023/09/28 10:37:05;;;;;;;17.35;4.40;;;22.30;65.30;;;;;;5051701;28;20039;-70
2023/09/28 10:39:32;;;;;;;10.20;3.40;;;22.40;65.00;;;;;;5058913;28;20424;-67
2023/09/28 10:42:15;;;;;;;11.50;3.75;;;22.50;65.10;;;;;;5052293;28;20057;-68
2023/09/28 10:44:49;;;;;;;14.20;4.38;;;22.60;65.00;;;;;;5054165;28;20080;-68
2023/09/28 10:47:15;;;;;;;11.82;3.40;;;22.70;64.90;;;;;;5051248;28;20121;-67
2023/09/28 10:49:48;;;;;;;15.40;4.20;;;22.80;64.90;;;;;;5049036;28;20260;-72
2023/09/28 10:52:16;;;;;;;14.18;3.90;;;23.00;65.00;;;;;;5062220;28;20032;-67
2023/09/28 10:54:44;;;;;;;13.93;4.07;;;23.10;64.80;;;;;;5054002;28;20045;-67
2023/09/28 10:57:10;;;;;;;11.07;3.30;;;23.20;64.60;;;;;;5054676;28;20032;-68
2023/09/28 10:59:41;;;;;;;14.05;4.47;;;23.20;64.40;;;;;;5049246;28;20059;-69
2023/09/28 11:02:08;;;;;;;10.32;3.45;;;23.20;64.30;;;;;;5058519;28;20051;-67
2023/09/28 11:04:38;;;;;;;10.20;3.72;;;23.20;64.80;;;;;;5057274;28;20028;-68
2023/09/28 11:07:07;;;;;;;12.07;3.75;;;23.20;64.30;;;;;;5054414;28;20041;-67
2023/09/28 11:09:33;;;;;;;10.88;3.92;;;23.20;64.20;;;;;;5056599;28;20033;-69
2023/09/28 11:12:04;;;;;;;12.65;3.80;;;23.30;64.30;;;;;;5049277;28;20077;-68
2023/09/28 11:14:32;;;;;;;10.27;4.45;;;23.50;64.30;;;;;;5042051;28;20044;-70
2023/09/28 11:16:59;;;;;;;9.88;4.43;;;23.60;64.00;;;;;;5053540;28;20512;-68
2023/09/28 11:19:25;;;;;;;12.63;4.57;;;23.70;63.80;;;;;;5054435;28;20036;-74
2023/09/28 11:21:52;;;;;;;17.30;5.07;;;23.90;64.00;;;;;;5050939;28;20033;-72
2023/09/28 11:24:20;;;;;;;12.32;4.03;;;23.90;63.70;;;;;;5061880;28;20217;-68
2023/09/28 11:26:46;;;;;;;12.15;4.38;;;24.00;63.50;;;;;;5057484;28;21476;-72
2023/09/28 11:29:11;;;;;;;11.50;3.78;;;24.10;63.50;;;;;;5057735;28;20428;-68
2023/09/28 11:31:47;;;;;;;9.35;3.85;;;24.10;63.50;;;;;;5058934;28;20163;-66
2023/09/28 11:34:14;;;;;;;11.95;4.25;;;24.20;63.50;;;;;;5059341;28;20040;-68
2023/09/28 11:36:42;;;;;;;12.13;3.85;;;24.20;63.40;;;;;;5052360;28;20048;-69
2023/09/28 11:39:12;;;;;;;11.15;4.20;;;24.30;63.50;;;;;;5070753;28;20036;-70
2023/09/28 11:41:57;;;;;;;14.27;5.00;;;24.20;63.30;;;;;;5058807;28;20545;-68
2023/09/28 11:44:27;;;;;;;13.93;4.85;;;24.20;63.20;;;;;;5060094;28;20619;-68
2023/09/28 11:46:54;;;;;;;9.07;4.00;;;24.10;63.20;;;;;;5057763;28;20112;-68
2023/09/28 11:49:22;;;;;;;8.48;4.05;;;24.10;63.20;;;;;;5061888;28;20044;-66
2023/09/28 11:51:48;;;;;;;10.68;4.70;;;24.10;63.20;;;;;;5056909;28;20036;-69
2023/09/28 11:54:16;;;;;;;9.20;3.97;;;24.00;63.10;;;;;;5057326;28;20126;-67
2023/09/28 11:56:44;;;;;;;13.82;3.70;;;24.00;63.00;;;;;;5057323;28;20121;-74
2023/09/28 11:59:14;;;;;;;12.13;3.92;;;24.10;63.00;;;;;;5060653;28;20048;-68
2023/09/28 12:01:40;;;;;;;11.90;4.75;;;24.20;62.90;;;;;;5060484;28;20037;-68
2023/09/28 12:04:07;;;;;;;10.65;3.63;;;24.30;62.90;;;;;;5063006;28;20036;-67
2023/09/28 12:06:34;;;;;;;9.68;3.28;;;24.40;62.90;;;;;;5066034;28;20082;-68
2023/09/28 12:08:59;;;;;;;13.50;4.97;;;24.30;62.60;;;;;;5064501;28;20178;-67
2023/09/28 12:11:25;;;;;;;9.10;4.35;;;24.30;62.60;;;;;;5059744;28;20036;-70
2023/09/28 12:13:52;;;;;;;11.70;4.32;;;24.30;62.50;;;;;;5060532;28;20035;-68
2023/09/28 12:16:19;;;;;;;13.27;4.18;;;24.20;62.40;;;;;;5065444;28;20036;-70
2023/09/28 12:18:46;;;;;;;10.93;3.90;;;24.20;62.30;;;;;;5058084;28;20075;-75
2023/09/28 12:21:12;;;;;;;11.82;4.15;;;24.20;62.30;;;;;;5058388;28;20044;-68
2023/09/28 12:23:38;;;;;;;15.32;4.43;;;24.30;62.40;;;;;;5057586;28;20070;-69
2023/09/28 12:26:04;;;;;;;11.48;3.45;;;24.30;62.30;;;;;;5061299;28;20430;-75
2023/09/28 12:28:36;;;;;;;10.63;4.30;;;24.40;62.30;;;;;;5055843;28;20060;-71
2023/09/28 12:31:03;;;;;;;10.15;4.45;;;24.40;62.30;;;;;;5052266;28;20423;-68
2023/09/28 12:33:30;;;;;;;14.40;4.75;;;24.40;62.20;;;;;;5057022;28;20036;-68
2023/09/28 12:35:59;;;;;;;11.32;4.53;;;24.40;62.10;;;;;;5048079;28;20036;-68
2023/09/28 12:38:25;;;;;;;11.35;3.60;;;24.40;62.00;;;;;;5066297;28;20389;-67
2023/09/28 12:40:51;;;;;;;11.30;4.50;;;24.40;62.00;;;;;;5064751;28;20025;-68